sensor_id;sensor_type;location;lat;lon;timestamp;pressure;altitude;pressure_sealevel;temperature;humidity
73101;BME280;61288;53.446;-2.266;2024-01-07T00:01:03;103875.41;;;-0.96;100.00
73101;BME280;61288;53.446;-2.266;2024-01-07T00:03:28;103890.00;;;-0.93;100.00
73101;BME280;61288;53.446;-2.266;2024-01-07T00:05:53;103897.91;;;-0.89;100.00
73101;BME280;61288;53.446;-2.266;2024-01-07T00:08:19;103900.56;;;-0.87;100.00
73101;BME280;61288;53.446;-2.266;2024-01-07T00:10:44;103919.34;;;-0.85;100.00
73101;BME280;61288;53.446;-2.266;2024-01-07T00:13:10;103921.72;;;-0.88;100.00
73101;BME280;61288;53.446;-2.266;2024-01-07T00:15:35;103934.34;;;-0.90;100.00
73101;BME280;61288;53.446;-2.266;2024-01-07T00:18:01;103929.97;;;-0.92;100.00
73101;BME280;61288;53.446;-2.266;2024-01-07T00:20:26;103947.66;;;-0.94;100.00
73101;BME280;61288;53.446;-2.266;2024-01-07T00:22:52;103955.22;;;-0.95;100.00
73101;BME280;61288;53.446;-2.266;2024-01-07T00:25:17;103966.19;;;-0.96;100.00
73101;BME280;61288;53.446;-2.266;2024-01-07T00:27:43;103969.25;;;-1.02;100.00
73101;BME280;61288;53.446;-2.266;2024-01-07T00:33:09;103984.28;;;-1.20;100.00
73101;BME280;61288;53.446;-2.266;2024-01-07T00:35:35;103984.56;;;-1.29;100.00
73101;BME280;61288;53.446;-2.266;2024-01-07T00:38:00;103980.97;;;-1.33;100.00
73101;BME280;61288;53.446;-2.266;2024-01-07T00:40:26;103987.53;;;-1.36;100.00
73101;BME280;61288;53.446;-2.266;2024-01-07T00:42:51;104000.13;;;-1.38;100.00
73101;BME280;61288;53.446;-2.266;2024-01-07T00:45:18;104013.56;;;-1.40;100.00
73101;BME280;61288;53.446;-2.266;2024-01-07T00:47:44;104030.41;;;-1.42;100.00
73101;BME280;61288;53.446;-2.266;2024-01-07T00:50:09;104036.28;;;-1.43;100.00
73101;BME280;61288;53.446;-2.266;2024-01-07T00:52:36;104043.13;;;-1.42;100.00
73101;BME280;61288;53.446;-2.266;2024-01-07T00:55:06;104046.25;;;-1.47;100.00
73101;BME280;61288;53.446;-2.266;2024-01-07T00:57:32;104057.78;;;-1.52;100.00
73101;BME280;61288;53.446;-2.266;2024-01-07T00:59:59;104067.88;;;-1.53;100.00
73101;BME280;61288;53.446;-2.266;2024-01-07T01:02:24;104070.88;;;-1.59;100.00
73101;BME280;61288;53.446;-2.266;2024-01-07T01:04:50;104078.63;;;-1.57;100.00
73101;BME280;61288;53.446;-2.266;2024-01-07T01:07:15;104077.66;;;-1.60;100.00
73101;BME280;61288;53.446;-2.266;2024-01-07T01:09:41;104084.56;;;-1.57;100.00
73101;BME280;61288;53.446;-2.266;2024-01-07T01:12:06;104101.00;;;-1.52;100.00
73101;BME280;61288;53.446;-2.266;2024-01-07T01:14:32;104109.84;;;-1.47;100.00
73101;BME280;61288;53.446;-2.266;2024-01-07T01:16:57;104120.22;;;-1.43;100.00
73101;BME280;61288;53.446;-2.266;2024-01-07T01:19:24;104112.78;;;-1.40;100.00
73101;BME280;61288;53.446;-2.266;2024-01-07T01:21:50;104126.56;;;-1.37;100.00
73101;BME280;61288;53.446;-2.266;2024-01-07T01:24:15;104128.13;;;-1.39;100.00
73101;BME280;61288;53.446;-2.266;2024-01-07T01:26:41;104128.03;;;-1.40;100.00
73101;BME280;61288;53.446;-2.266;2024-01-07T01:29:06;104128.31;;;-1.49;100.00
73101;BME280;61288;53.446;-2.266;2024-01-07T01:31:31;104129.69;;;-1.54;100.00
73101;BME280;61288;53.446;-2.266;2024-01-07T01:33:57;104139.47;;;-1.61;100.00
73101;BME280;61288;53.446;-2.266;2024-01-07T01:36:22;104138.94;;;-1.68;100.00
73101;BME280;61288;53.446;-2.266;2024-01-07T01:38:48;104137.06;;;-1.71;100.00
73101;BME280;61288;53.446;-2.266;2024-01-07T01:41:15;104153.69;;;-1.76;100.00
73101;BME280;61288;53.446;-2.266;2024-01-07T01:43:41;104147.41;;;-1.81;100.00
73101;BME280;61288;53.446;-2.266;2024-01-07T01:46:06;104149.63;;;-1.86;100.00
73101;BME280;61288;53.446;-2.266;2024-01-07T01:48:32;104153.66;;;-1.90;100.00
73101;BME280;61288;53.446;-2.266;2024-01-07T01:50:59;104152.56;;;-1.93;100.00
73101;BME280;61288;53.446;-2.266;2024-01-07T01:53:26;104158.53;;;-1.93;100.00
73101;BME280;61288;53.446;-2.266;2024-01-07T01:55:52;104175.63;;;-1.90;100.00
73101;BME280;61288;53.446;-2.266;2024-01-07T01:58:20;104183.06;;;-1.93;100.00
73101;BME280;61288;53.446;-2.266;2024-01-07T02:00:47;104193.03;;;-1.96;100.00
73101;BME280;61288;53.446;-2.266;2024-01-07T02:03:12;104199.88;;;-1.95;100.00
73101;BME280;61288;53.446;-2.266;2024-01-07T02:05:38;104210.94;;;-1.95;100.00
73101;BME280;61288;53.446;-2.266;2024-01-07T02:08:04;104219.34;;;-1.96;100.00
73101;BME280;61288;53.446;-2.266;2024-01-07T02:10:30;104220.13;;;-1.97;100.00
73101;BME280;61288;53.446;-2.266;2024-01-07T02:13:00;104239.47;;;-1.99;100.00
73101;BME280;61288;53.446;-2.266;2024-01-07T02:15:26;104242.88;;;-1.98;100.00
73101;BME280;61288;53.446;-2.266;2024-01-07T02:17:51;104253.03;;;-1.98;100.00
73101;BME280;61288;53.446;-2.266;2024-01-07T02:20:17;104260.66;;;-1.98;100.00
73101;BME280;61288;53.446;-2.266;2024-01-07T02:22:42;104272.50;;;-1.99;100.00
73101;BME280;61288;53.446;-2.266;2024-01-07T02:25:08;104280.88;;;-2.00;100.00
73101;BME280;61288;53.446;-2.266;2024-01-07T02:27:34;104282.66;;;-1.99;100.00
73101;BME280;61288;53.446;-2.266;2024-01-07T02:29:59;104285.31;;;-1.97;100.00
73101;BME280;61288;53.446;-2.266;2024-01-07T02:32:25;104300.88;;;-1.93;100.00
73101;BME280;61288;53.446;-2.266;2024-01-07T02:34:51;104302.84;;;-1.89;100.00
73101;BME280;61288;53.446;-2.266;2024-01-07T02:37:16;104326.94;;;-1.83;100.00
73101;BME280;61288;53.446;-2.266;2024-01-07T02:39:42;104330.25;;;-1.84;100.00
73101;BME280;61288;53.446;-2.266;2024-01-07T02:42:07;104336.91;;;-1.86;100.00
73101;BME280;61288;53.446;-2.266;2024-01-07T02:44:33;104344.53;;;-1.86;100.00
73101;BME280;61288;53.446;-2.266;2024-01-07T02:46:59;104355.34;;;-1.89;100.00
73101;BME280;61288;53.446;-2.266;2024-01-07T02:49:25;104349.84;;;-1.95;100.00
73101;BME280;61288;53.446;-2.266;2024-01-07T02:51:50;104361.56;;;-1.97;100.00
73101;BME280;61288;53.446;-2.266;2024-01-07T02:54:16;104369.09;;;-1.99;100.00
73101;BME280;61288;53.446;-2.266;2024-01-07T02:56:42;104365.66;;;-1.99;100.00
73101;BME280;61288;53.446;-2.266;2024-01-07T02:59:07;104373.41;;;-1.98;100.00
73101;BME280;61288;53.446;-2.266;2024-01-07T03:01:33;104379.78;;;-1.91;100.00
73101;BME280;61288;53.446;-2.266;2024-01-07T03:04:06;104389.06;;;-1.92;100.00
73101;BME280;61288;53.446;-2.266;2024-01-07T03:06:33;104391.72;;;-1.90;100.00
73101;BME280;61288;53.446;-2.266;2024-01-07T03:08:59;104398.25;;;-1.94;100.00
73101;BME280;61288;53.446;-2.266;2024-01-07T03:11:25;104399.47;;;-2.00;100.00
73101;BME280;61288;53.446;-2.266;2024-01-07T03:13:50;104406.88;;;-2.04;100.00
73101;BME280;61288;53.446;-2.266;2024-01-07T03:16:21;104406.66;;;-2.07;100.00
73101;BME280;61288;53.446;-2.266;2024-01-07T03:18:47;104412.50;;;-2.08;100.00
73101;BME280;61288;53.446;-2.266;2024-01-07T03:21:20;104423.75;;;-2.04;100.00
73101;BME280;61288;53.446;-2.266;2024-01-07T03:23:47;104421.34;;;-2.03;100.00
73101;BME280;61288;53.446;-2.266;2024-01-07T03:26:13;104430.31;;;-1.96;100.00
73101;BME280;61288;53.446;-2.266;2024-01-07T03:28:39;104442.56;;;-1.90;100.00
73101;BME280;61288;53.446;-2.266;2024-01-07T03:31:08;104454.72;;;-1.86;100.00
73101;BME280;61288;53.446;-2.266;2024-01-07T03:33:34;104462.81;;;-1.80;100.00
73101;BME280;61288;53.446;-2.266;2024-01-07T03:35:59;104465.66;;;-1.75;100.00
73101;BME280;61288;53.446;-2.266;2024-01-07T03:38:25;104478.03;;;-1.68;100.00
73101;BME280;61288;53.446;-2.266;2024-01-07T03:40:50;104487.66;;;-1.64;100.00
73101;BME280;61288;53.446;-2.266;2024-01-07T03:43:16;104490.53;;;-1.59;100.00
73101;BME280;61288;53.446;-2.266;2024-01-07T03:45:44;104505.44;;;-1.52;100.00
73101;BME280;61288;53.446;-2.266;2024-01-07T03:48:09;104517.72;;;-1.46;100.00
73101;BME280;61288;53.446;-2.266;2024-01-07T03:50:35;104521.59;;;-1.39;100.00
73101;BME280;61288;53.446;-2.266;2024-01-07T03:53:00;104532.97;;;-1.34;100.00
73101;BME280;61288;53.446;-2.266;2024-01-07T03:55:26;104547.81;;;-1.28;100.00
73101;BME280;61288;53.446;-2.266;2024-01-07T03:57:52;104543.81;;;-1.25;100.00
73101;BME280;61288;53.446;-2.266;2024-01-07T04:00:17;104556.88;;;-1.20;100.00
73101;BME280;61288;53.446;-2.266;2024-01-07T04:02:43;104568.25;;;-1.15;100.00
73101;BME280;61288;53.446;-2.266;2024-01-07T04:05:09;104565.06;;;-1.12;100.00
73101;BME280;61288;53.446;-2.266;2024-01-07T04:07:34;104573.91;;;-1.07;100.00
73101;BME280;61288;53.446;-2.266;2024-01-07T04:10:00;104581.84;;;-1.03;100.00
73101;BME280;61288;53.446;-2.266;2024-01-07T04:12:25;104591.38;;;-1.00;100.00
73101;BME280;61288;53.446;-2.266;2024-01-07T04:14:51;104595.91;;;-0.96;100.00
73101;BME280;61288;53.446;-2.266;2024-01-07T04:17:17;104607.06;;;-0.94;100.00
73101;BME280;61288;53.446;-2.266;2024-01-07T04:19:43;104602.97;;;-0.92;100.00
73101;BME280;61288;53.446;-2.266;2024-01-07T04:22:09;104618.47;;;-0.89;100.00
73101;BME280;61288;53.446;-2.266;2024-01-07T04:24:34;104628.09;;;-0.84;100.00
73101;BME280;61288;53.446;-2.266;2024-01-07T04:27:00;104629.19;;;-0.81;100.00
73101;BME280;61288;53.446;-2.266;2024-01-07T04:29:26;104635.19;;;-0.80;100.00
73101;BME280;61288;53.446;-2.266;2024-01-07T04:31:51;104630.31;;;-0.77;100.00
73101;BME280;61288;53.446;-2.266;2024-01-07T04:34:17;104632.94;;;-0.76;100.00
73101;BME280;61288;53.446;-2.266;2024-01-07T04:36:42;104642.28;;;-0.76;100.00
73101;BME280;61288;53.446;-2.266;2024-01-07T04:39:08;104641.50;;;-0.75;100.00
73101;BME280;61288;53.446;-2.266;2024-01-07T04:41:35;104650.00;;;-0.75;100.00
73101;BME280;61288;53.446;-2.266;2024-01-07T04:44:00;104656.09;;;-0.73;100.00
73101;BME280;61288;53.446;-2.266;2024-01-07T04:46:26;104661.50;;;-0.68;100.00
73101;BME280;61288;53.446;-2.266;2024-01-07T04:48:52;104671.81;;;-0.66;100.00
73101;BME280;61288;53.446;-2.266;2024-01-07T04:51:17;104674.59;;;-0.63;100.00
73101;BME280;61288;53.446;-2.266;2024-01-07T04:53:43;104679.78;;;-0.62;100.00
73101;BME280;61288;53.446;-2.266;2024-01-07T04:56:08;104678.13;;;-0.61;100.00
73101;BME280;61288;53.446;-2.266;2024-01-07T04:58:34;104686.63;;;-0.61;100.00
73101;BME280;61288;53.446;-2.266;2024-01-07T05:01:00;104694.28;;;-0.61;100.00
73101;BME280;61288;53.446;-2.266;2024-01-07T05:03:25;104706.25;;;-0.60;100.00
73101;BME280;61288;53.446;-2.266;2024-01-07T05:05:51;104710.34;;;-0.62;100.00
73101;BME280;61288;53.446;-2.266;2024-01-07T05:08:17;104714.56;;;-0.62;100.00
73101;BME280;61288;53.446;-2.266;2024-01-07T05:10:43;104716.22;;;-0.63;100.00
73101;BME280;61288;53.446;-2.266;2024-01-07T05:13:08;104716.13;;;-0.64;100.00
73101;BME280;61288;53.446;-2.266;2024-01-07T05:15:34;104722.78;;;-0.66;100.00
73101;BME280;61288;53.446;-2.266;2024-01-07T05:17:59;104728.41;;;-0.70;100.00
73101;BME280;61288;53.446;-2.266;2024-01-07T05:20:25;104734.94;;;-0.74;100.00
73101;BME280;61288;53.446;-2.266;2024-01-07T05:22:51;104727.88;;;-0.78;100.00
73101;BME280;61288;53.446;-2.266;2024-01-07T05:25:19;104734.25;;;-0.83;100.00
73101;BME280;61288;53.446;-2.266;2024-01-07T05:27:45;104736.59;;;-0.87;100.00
73101;BME280;61288;53.446;-2.266;2024-01-07T05:30:10;104752.78;;;-0.86;100.00
73101;BME280;61288;53.446;-2.266;2024-01-07T05:32:36;104748.22;;;-0.90;100.00
73101;BME280;61288;53.446;-2.266;2024-01-07T05:35:02;104752.97;;;-0.95;100.00
73101;BME280;61288;53.446;-2.266;2024-01-07T05:37:28;104752.66;;;-0.99;100.00
73101;BME280;61288;53.446;-2.266;2024-01-07T05:39:53;104747.88;;;-1.07;100.00
73101;BME280;61288;53.446;-2.266;2024-01-07T05:42:18;104755.19;;;-1.11;100.00
73101;BME280;61288;53.446;-2.266;2024-01-07T05:44:45;104760.84;;;-1.15;100.00
73101;BME280;61288;53.446;-2.266;2024-01-07T05:47:10;104767.22;;;-1.21;100.00
73101;BME280;61288;53.446;-2.266;2024-01-07T05:49:35;104775.28;;;-1.26;100.00
73101;BME280;61288;53.446;-2.266;2024-01-07T05:52:01;104780.81;;;-1.32;100.00
73101;BME280;61288;53.446;-2.266;2024-01-07T05:54:26;104783.88;;;-1.36;100.00
73101;BME280;61288;53.446;-2.266;2024-01-07T05:56:52;104789.63;;;-1.39;100.00
73101;BME280;61288;53.446;-2.266;2024-01-07T05:59:17;104797.38;;;-1.37;100.00
73101;BME280;61288;53.446;-2.266;2024-01-07T06:01:43;104805.25;;;-1.34;100.00
73101;BME280;61288;53.446;-2.266;2024-01-07T06:04:08;104817.19;;;-1.33;100.00
73101;BME280;61288;53.446;-2.266;2024-01-07T06:06:34;104818.75;;;-1.35;100.00
73101;BME280;61288;53.446;-2.266;2024-01-07T06:09:00;104809.88;;;-1.40;100.00
73101;BME280;61288;53.446;-2.266;2024-01-07T06:11:26;104819.91;;;-1.42;100.00
73101;BME280;61288;53.446;-2.266;2024-01-07T06:13:52;104821.59;;;-1.42;100.00
73101;BME280;61288;53.446;-2.266;2024-01-07T06:16:17;104832.53;;;-1.43;100.00
73101;BME280;61288;53.446;-2.266;2024-01-07T06:18:43;104833.19;;;-1.46;100.00
73101;BME280;61288;53.446;-2.266;2024-01-07T06:21:08;104841.59;;;-1.47;100.00
73101;BME280;61288;53.446;-2.266;2024-01-07T06:23:34;104850.22;;;-1.45;100.00
73101;BME280;61288;53.446;-2.266;2024-01-07T06:26:04;104854.44;;;-1.46;100.00
73101;BME280;61288;53.446;-2.266;2024-01-07T06:28:29;104859.41;;;-1.47;100.00
73101;BME280;61288;53.446;-2.266;2024-01-07T06:30:55;104863.72;;;-1.46;100.00
73101;BME280;61288;53.446;-2.266;2024-01-07T06:33:20;104874.13;;;-1.43;100.00
73101;BME280;61288;53.446;-2.266;2024-01-07T06:35:46;104872.13;;;-1.47;100.00
73101;BME280;61288;53.446;-2.266;2024-01-07T06:38:11;104884.19;;;-1.44;100.00
73101;BME280;61288;53.446;-2.266;2024-01-07T06:40:37;104895.91;;;-1.47;100.00
73101;BME280;61288;53.446;-2.266;2024-01-07T06:43:02;104907.09;;;-1.44;100.00
73101;BME280;61288;53.446;-2.266;2024-01-07T06:45:28;104912.44;;;-1.41;100.00
73101;BME280;61288;53.446;-2.266;2024-01-07T06:47:53;104920.63;;;-1.34;100.00
73101;BME280;61288;53.446;-2.266;2024-01-07T06:50:20;104947.59;;;-1.25;100.00
73101;BME280;61288;53.446;-2.266;2024-01-07T06:52:46;104947.38;;;-1.17;100.00
73101;BME280;61288;53.446;-2.266;2024-01-07T06:55:11;104956.38;;;-1.10;100.00
73101;BME280;61288;53.446;-2.266;2024-01-07T06:57:37;104962.63;;;-1.06;100.00
73101;BME280;61288;53.446;-2.266;2024-01-07T07:00:03;104967.03;;;-1.04;100.00
73101;BME280;61288;53.446;-2.266;2024-01-07T07:02:29;104961.19;;;-1.03;100.00
73101;BME280;61288;53.446;-2.266;2024-01-07T07:04:55;104972.13;;;-1.04;100.00
73101;BME280;61288;53.446;-2.266;2024-01-07T07:07:20;104966.72;;;-1.08;100.00
73101;BME280;61288;53.446;-2.266;2024-01-07T07:09:45;104977.28;;;-1.14;100.00
73101;BME280;61288;53.446;-2.266;2024-01-07T07:12:12;104976.91;;;-1.19;100.00
73101;BME280;61288;53.446;-2.266;2024-01-07T07:14:37;104989.66;;;-1.19;100.00
73101;BME280;61288;53.446;-2.266;2024-01-07T07:17:03;104993.97;;;-1.18;100.00
73101;BME280;61288;53.446;-2.266;2024-01-07T07:19:29;105002.75;;;-1.14;100.00
73101;BME280;61288;53.446;-2.266;2024-01-07T07:21:54;105011.16;;;-1.15;100.00
73101;BME280;61288;53.446;-2.266;2024-01-07T07:24:20;105014.59;;;-1.14;100.00
73101;BME280;61288;53.446;-2.266;2024-01-07T07:26:45;105020.47;;;-1.15;100.00
73101;BME280;61288;53.446;-2.266;2024-01-07T07:29:10;105013.47;;;-1.18;100.00
73101;BME280;61288;53.446;-2.266;2024-01-07T07:31:36;105020.19;;;-1.19;100.00
73101;BME280;61288;53.446;-2.266;2024-01-07T07:34:08;105026.28;;;-1.17;100.00
73101;BME280;61288;53.446;-2.266;2024-01-07T07:36:33;105024.13;;;-1.12;100.00
73101;BME280;61288;53.446;-2.266;2024-01-07T07:38:59;105037.09;;;-1.09;100.00
73101;BME280;61288;53.446;-2.266;2024-01-07T07:41:24;105037.75;;;-1.11;100.00
73101;BME280;61288;53.446;-2.266;2024-01-07T07:43:50;105039.41;;;-1.12;100.00
73101;BME280;61288;53.446;-2.266;2024-01-07T07:46:15;105052.13;;;-1.12;100.00
73101;BME280;61288;53.446;-2.266;2024-01-07T07:48:41;105057.44;;;-1.09;100.00
73101;BME280;61288;53.446;-2.266;2024-01-07T07:51:07;105073.72;;;-1.07;100.00
73101;BME280;61288;53.446;-2.266;2024-01-07T07:53:33;105080.75;;;-1.04;100.00
73101;BME280;61288;53.446;-2.266;2024-01-07T07:55:58;105087.47;;;-1.05;100.00
73101;BME280;61288;53.446;-2.266;2024-01-07T07:58:24;105095.25;;;-1.03;100.00
73101;BME280;61288;53.446;-2.266;2024-01-07T08:00:49;105100.09;;;-1.06;100.00
73101;BME280;61288;53.446;-2.266;2024-01-07T08:03:15;105104.28;;;-1.07;100.00
73101;BME280;61288;53.446;-2.266;2024-01-07T08:05:41;105114.38;;;-1.08;100.00
73101;BME280;61288;53.446;-2.266;2024-01-07T08:08:07;105110.81;;;-1.10;100.00
73101;BME280;61288;53.446;-2.266;2024-01-07T08:10:33;105116.66;;;-1.11;100.00
73101;BME280;61288;53.446;-2.266;2024-01-07T08:13:00;105127.72;;;-1.11;100.00
73101;BME280;61288;53.446;-2.266;2024-01-07T08:15:26;105131.03;;;-1.12;100.00
73101;BME280;61288;53.446;-2.266;2024-01-07T08:17:51;105136.50;;;-1.18;100.00
73101;BME280;61288;53.446;-2.266;2024-01-07T08:20:17;105143.91;;;-1.21;100.00
73101;BME280;61288;53.446;-2.266;2024-01-07T08:22:42;105137.31;;;-1.29;100.00
73101;BME280;61288;53.446;-2.266;2024-01-07T08:25:08;105140.13;;;-1.36;100.00
73101;BME280;61288;53.446;-2.266;2024-01-07T08:27:34;105149.66;;;-1.34;100.00
73101;BME280;61288;53.446;-2.266;2024-01-07T08:30:01;105151.56;;;-1.31;100.00
73101;BME280;61288;53.446;-2.266;2024-01-07T08:32:26;105162.16;;;-1.26;100.00
73101;BME280;61288;53.446;-2.266;2024-01-07T08:34:52;105165.69;;;-1.24;100.00
73101;BME280;61288;53.446;-2.266;2024-01-07T08:37:17;105171.91;;;-1.21;100.00
73101;BME280;61288;53.446;-2.266;2024-01-07T08:39:43;105177.00;;;-1.21;100.00
73101;BME280;61288;53.446;-2.266;2024-01-07T08:42:08;105177.66;;;-1.23;100.00
73101;BME280;61288;53.446;-2.266;2024-01-07T08:44:34;105190.50;;;-1.22;100.00
73101;BME280;61288;53.446;-2.266;2024-01-07T08:47:00;105190.50;;;-1.22;100.00
73101;BME280;61288;53.446;-2.266;2024-01-07T08:49:28;105201.44;;;-1.23;100.00
73101;BME280;61288;53.446;-2.266;2024-01-07T08:51:54;105197.88;;;-1.25;100.00
73101;BME280;61288;53.446;-2.266;2024-01-07T08:54:22;105213.91;;;-1.26;100.00
73101;BME280;61288;53.446;-2.266;2024-01-07T08:56:48;105215.44;;;-1.28;100.00
73101;BME280;61288;53.446;-2.266;2024-01-07T08:59:14;105220.53;;;-1.28;100.00
73101;BME280;61288;53.446;-2.266;2024-01-07T09:01:40;105217.22;;;-1.27;100.00
73101;BME280;61288;53.446;-2.266;2024-01-07T09:04:05;105234.16;;;-1.27;100.00
73101;BME280;61288;53.446;-2.266;2024-01-07T09:06:31;105232.25;;;-1.30;100.00
73101;BME280;61288;53.446;-2.266;2024-01-07T09:08:57;105231.09;;;-1.34;100.00
73101;BME280;61288;53.446;-2.266;2024-01-07T09:11:23;105233.53;;;-1.35;100.00
73101;BME280;61288;53.446;-2.266;2024-01-07T09:13:49;105243.97;;;-1.32;100.00
73101;BME280;61288;53.446;-2.266;2024-01-07T09:16:16;105260.50;;;-1.27;100.00
73101;BME280;61288;53.446;-2.266;2024-01-07T09:18:41;105277.56;;;-1.15;100.00
73101;BME280;61288;53.446;-2.266;2024-01-07T09:21:09;105283.28;;;-0.97;100.00
73101;BME280;61288;53.446;-2.266;2024-01-07T09:23:34;105300.44;;;-0.84;100.00
73101;BME280;61288;53.446;-2.266;2024-01-07T09:26:02;105327.66;;;-0.63;100.00
73101;BME280;61288;53.446;-2.266;2024-01-07T09:28:28;105352.88;;;-0.45;100.00
73101;BME280;61288;53.446;-2.266;2024-01-07T09:30:53;105361.25;;;-0.36;100.00
73101;BME280;61288;53.446;-2.266;2024-01-07T09:33:19;105380.47;;;-0.29;100.00
73101;BME280;61288;53.446;-2.266;2024-01-07T09:35:47;105389.50;;;-0.22;100.00
73101;BME280;61288;53.446;-2.266;2024-01-07T09:38:13;105392.44;;;-0.18;100.00
73101;BME280;61288;53.446;-2.266;2024-01-07T09:40:39;105403.78;;;-0.14;100.00
73101;BME280;61288;53.446;-2.266;2024-01-07T09:43:05;105417.78;;;-0.09;100.00
73101;BME280;61288;53.446;-2.266;2024-01-07T09:45:31;105418.13;;;-0.04;100.00
73101;BME280;61288;53.446;-2.266;2024-01-07T09:47:56;105421.97;;;0.01;100.00
73101;BME280;61288;53.446;-2.266;2024-01-07T09:50:22;105433.19;;;0.03;100.00
73101;BME280;61288;53.446;-2.266;2024-01-07T09:52:48;105444.50;;;0.07;100.00
73101;BME280;61288;53.446;-2.266;2024-01-07T09:55:22;105448.97;;;0.09;100.00
73101;BME280;61288;53.446;-2.266;2024-01-07T09:57:52;105462.06;;;0.14;100.00
73101;BME280;61288;53.446;-2.266;2024-01-07T10:00:17;105468.09;;;0.14;100.00
73101;BME280;61288;53.446;-2.266;2024-01-07T10:02:43;105464.63;;;0.14;100.00
73101;BME280;61288;53.446;-2.266;2024-01-07T10:05:09;105464.91;;;0.17;100.00
73101;BME280;61288;53.446;-2.266;2024-01-07T10:07:34;105468.47;;;0.19;100.00
73101;BME280;61288;53.446;-2.266;2024-01-07T10:10:15;105472.91;;;0.22;100.00
73101;BME280;61288;53.446;-2.266;2024-01-07T10:12:44;105487.06;;;0.28;100.00
73101;BME280;61288;53.446;-2.266;2024-01-07T10:15:13;105505.41;;;0.35;100.00
73101;BME280;61288;53.446;-2.266;2024-01-07T10:17:41;105522.34;;;0.45;100.00
73101;BME280;61288;53.446;-2.266;2024-01-07T10:20:07;105543.72;;;0.57;100.00
73101;BME280;61288;53.446;-2.266;2024-01-07T10:22:36;105554.44;;;0.63;100.00
73101;BME280;61288;53.446;-2.266;2024-01-07T10:25:02;105566.41;;;0.75;100.00
73101;BME280;61288;53.446;-2.266;2024-01-07T10:27:28;105593.38;;;0.93;100.00
73101;BME280;61288;53.446;-2.266;2024-01-07T10:29:54;105611.56;;;1.19;100.00
73101;BME280;61288;53.446;-2.266;2024-01-07T10:32:20;105634.50;;;1.51;100.00
73101;BME280;61288;53.446;-2.266;2024-01-07T10:34:47;105684.28;;;1.89;100.00
73101;BME280;61288;53.446;-2.266;2024-01-07T10:37:13;105708.88;;;2.21;100.00
73101;BME280;61288;53.446;-2.266;2024-01-07T10:39:39;105737.88;;;2.56;100.00
73101;BME280;61288;53.446;-2.266;2024-01-07T10:42:05;105769.25;;;2.99;100.00
73101;BME280;61288;53.446;-2.266;2024-01-07T10:44:32;105806.03;;;3.36;100.00
73101;BME280;61288;53.446;-2.266;2024-01-07T10:46:58;105824.28;;;3.64;100.00
73101;BME280;61288;53.446;-2.266;2024-01-07T10:49:26;105834.53;;;3.88;100.00
73101;BME280;61288;53.446;-2.266;2024-01-07T10:52:06;105813.69;;;4.09;100.00
73101;BME280;61288;53.446;-2.266;2024-01-07T10:54:33;105741.22;;;4.38;100.00
73101;BME280;61288;53.446;-2.266;2024-01-07T10:57:18;105515.25;;;4.53;100.00
73101;BME280;61288;53.446;-2.266;2024-01-07T10:59:47;105264.28;;;4.82;100.00
73101;BME280;61288;53.446;-2.266;2024-01-07T11:02:15;105167.97;;;5.07;100.00
73101;BME280;61288;53.446;-2.266;2024-01-07T11:04:56;105087.31;;;5.22;100.00
73101;BME280;61288;53.446;-2.266;2024-01-07T11:07:35;105011.50;;;5.48;100.00
73101;BME280;61288;53.446;-2.266;2024-01-07T11:12:37;104943.16;;;5.89;100.00
73101;BME280;61288;53.446;-2.266;2024-01-07T11:15:03;104880.50;;;6.07;100.00
73101;BME280;61288;53.446;-2.266;2024-01-07T11:20:02;104703.44;;;6.63;100.00
73101;BME280;61288;53.446;-2.266;2024-01-07T11:22:27;104627.22;;;6.93;100.00
73101;BME280;61288;53.446;-2.266;2024-01-07T11:24:55;104507.13;;;7.24;100.00
73101;BME280;61288;53.446;-2.266;2024-01-07T11:27:22;104398.13;;;7.57;100.00
73101;BME280;61288;53.446;-2.266;2024-01-07T11:30:02;104266.13;;;7.74;100.00
73101;BME280;61288;53.446;-2.266;2024-01-07T11:32:30;104172.13;;;7.98;100.00
73101;BME280;61288;53.446;-2.266;2024-01-07T11:34:55;104089.66;;;8.05;100.00
73101;BME280;61288;53.446;-2.266;2024-01-07T11:37:25;104019.81;;;8.01;100.00
73101;BME280;61288;53.446;-2.266;2024-01-07T11:39:56;103953.25;;;7.89;100.00
73101;BME280;61288;53.446;-2.266;2024-01-07T11:42:26;103892.31;;;7.95;100.00
73101;BME280;61288;53.446;-2.266;2024-01-07T11:44:53;103832.25;;;8.06;100.00
73101;BME280;61288;53.446;-2.266;2024-01-07T11:47:20;103791.53;;;7.92;100.00
73101;BME280;61288;53.446;-2.266;2024-01-07T11:49:46;103737.84;;;7.77;100.00
73101;BME280;61288;53.446;-2.266;2024-01-07T11:52:13;103663.00;;;7.76;100.00
73101;BME280;61288;53.446;-2.266;2024-01-07T11:54:39;103531.50;;;7.36;100.00
73101;BME280;61288;53.446;-2.266;2024-01-07T11:57:08;103421.22;;;7.24;100.00
73101;BME280;61288;53.446;-2.266;2024-01-07T11:59:34;103340.56;;;6.81;100.00
73101;BME280;61288;53.446;-2.266;2024-01-07T12:02:00;103327.56;;;6.74;100.00
73101;BME280;61288;53.446;-2.266;2024-01-07T12:04:27;103322.13;;;6.59;100.00
73101;BME280;61288;53.446;-2.266;2024-01-07T12:06:53;103330.25;;;6.33;100.00
73101;BME280;61288;53.446;-2.266;2024-01-07T12:09:19;103355.38;;;6.03;100.00
73101;BME280;61288;53.446;-2.266;2024-01-07T12:11:44;103373.75;;;5.82;100.00
73101;BME280;61288;53.446;-2.266;2024-01-07T12:14:10;103390.44;;;5.61;100.00
73101;BME280;61288;53.446;-2.266;2024-01-07T12:16:36;103415.75;;;5.44;100.00
73101;BME280;61288;53.446;-2.266;2024-01-07T12:19:02;103432.75;;;5.39;100.00
73101;BME280;61288;53.446;-2.266;2024-01-07T12:21:28;103461.03;;;5.38;100.00
73101;BME280;61288;53.446;-2.266;2024-01-07T12:23:55;103473.00;;;5.37;100.00
73101;BME280;61288;53.446;-2.266;2024-01-07T12:26:27;103485.09;;;5.41;100.00
73101;BME280;61288;53.446;-2.266;2024-01-07T12:28:57;103523.50;;;5.35;100.00
73101;BME280;61288;53.446;-2.266;2024-01-07T12:31:26;103538.84;;;5.32;100.00
73101;BME280;61288;53.446;-2.266;2024-01-07T12:33:56;103545.25;;;5.14;100.00
73101;BME280;61288;53.446;-2.266;2024-01-07T12:36:22;103578.91;;;5.24;100.00